Terminal Aerodrome Forecast
Issued by NWS Houston/Galveston, TX

Home | Current Version | Previous Version | Text Only | Print | Product List | Glossary On
Versions: 1 2 3 4 5 6 7 8 9 10 11 12 13 14 15 16 17 18 19 20 21 22 23 24 25 26 27
000
FTUS44 KHGX 242327
TAFGLS
TAF
KGLS 242327Z 2500/2524 15014KT P6SM BKN025
     FM250600 17012KT 4SM BR BKN015 OVC025
     FM251200 22007KT P6SM VCSH SCT005 BKN012 OVC025
     FM251800 33009KT P6SM SCT020 SCT050 BKN250
     FM252000 34011KT P6SM BKN250=

USA.gov is the U.S. government's official web portal to all federal, state and local government web resources and services.